Time;durP1;ratioP1;P1;durP2;ratioP2;P2;SDS_P1;SDS_P2;PMS_P1;PMS_P2;Temp;Humidity;BMP_temperature;BMP_pressure;BME280_temperature;BME280_humidity;BME280_pressure;Samples;Min_cycle;Max_cycle;Signal;HPM_P1;HPM_P2
2022/11/20 00:03:56;;;;;;;35.85;16.92;;;;;;;;;;10477447;28;20032;-79
2022/11/20 00:08:57;;;;;;;32.50;16.55;;;;;;;;;;10478887;28;20052;-80
2022/11/20 00:14:01;;;;;;;34.72;16.48;;;;;;;;;;10485801;28;20071;-80
2022/11/20 00:19:02;;;;;;;33.93;16.53;;;;;;;;;;10468493;28;20044;-80
2022/11/20 00:24:03;;;;;;;33.92;17.52;;;;;;;;;;10498829;28;20092;-77
2022/11/20 00:29:03;;;;;;;31.23;15.57;;;;;;;;;;10460536;28;20044;-80
2022/11/20 00:34:04;;;;;;;35.20;15.80;;;;;;;;;;10476231;28;20047;-78
2022/11/20 00:39:05;;;;;;;34.10;16.07;;;;;;;;;;10467343;28;20372;-77
2022/11/20 00:44:06;;;;;;;32.03;15.18;;;;;;;;;;10467534;28;20682;-78
2022/11/20 00:49:07;;;;;;;35.50;16.23;;;;;;;;;;10468416;28;20553;-78
2022/11/20 00:54:08;;;;;;;31.83;15.37;;;;;;;;;;10477759;28;20035;-79
2022/11/20 00:59:08;;;;;;;32.58;15.77;;;;;;;;;;10475843;28;20479;-78
2022/11/20 01:04:09;;;;;;;36.45;16.73;;;;;;;;;;10466674;28;20091;-78
2022/11/20 01:09:11;;;;;;;36.20;16.75;;;;;;;;;;10462019;28;20380;-78
2022/11/20 01:14:15;;;;;;;35.10;15.85;;;;;;;;;;10455167;28;20461;-78
2022/11/20 01:19:17;;;;;;;31.30;15.75;;;;;;;;;;10469405;28;20124;-78
2022/11/20 01:24:19;;;;;;;37.17;15.85;;;;;;;;;;10516716;28;20067;-78
2022/11/20 01:29:21;;;;;;;35.17;17.05;;;;;;;;;;10529772;28;20075;-79
2022/11/20 01:34:22;;;;;;;32.78;16.27;;;;;;;;;;10516777;28;20028;-80
2022/11/20 01:39:23;;;;;;;34.58;16.85;;;;;;;;;;10494145;28;20501;-79
2022/11/20 01:44:42;;;;;;;34.35;16.63;;;;;;;;;;10458756;28;20827;-80
2022/11/20 01:49:45;;;;;;;32.05;15.77;;;;;;;;;;10479106;28;20040;-79
2022/11/20 01:54:50;;;;;;;33.30;18.20;;;;;;;;;;10456866;28;20171;-80
2022/11/20 01:59:59;;;;;;;35.70;15.60;;;;;;;;;;10462199;28;20457;-78
2022/11/20 02:05:03;;;;;;;35.08;16.45;;;;;;;;;;10474297;28;20414;-81
2022/11/20 02:10:03;;;;;;;35.47;16.52;;;;;;;;;;10483063;28;20053;-79
2022/11/20 02:15:04;;;;;;;35.88;16.85;;;;;;;;;;10486652;28;20025;-78
2022/11/20 02:20:05;;;;;;;37.83;17.27;;;;;;;;;;10474595;28;20067;-80
2022/11/20 02:25:06;;;;;;;37.53;17.52;;;;;;;;;;10477302;28;20154;-79
2022/11/20 02:30:07;;;;;;;37.10;17.00;;;;;;;;;;10472947;28;20052;-79
2022/11/20 02:35:08;;;;;;;37.15;16.40;;;;;;;;;;10457389;28;20440;-79
2022/11/20 02:40:08;;;;;;;34.20;16.13;;;;;;;;;;10456461;28;20040;-80
2022/11/20 02:45:09;;;;;;;35.67;17.77;;;;;;;;;;10486222;28;20086;-79
2022/11/20 02:50:10;;;;;;;35.28;16.20;;;;;;;;;;10482307;28;20400;-80
2022/11/20 02:55:10;;;;;;;39.15;16.92;;;;;;;;;;10493246;28;20056;-77
2022/11/20 03:00:11;;;;;;;35.28;16.27;;;;;;;;;;10500256;28;20029;-78
2022/11/20 03:05:11;;;;;;;37.22;17.70;;;;;;;;;;10483967;28;20090;-76
2022/11/20 03:10:12;;;;;;;39.30;17.07;;;;;;;;;;10480233;28;20183;-76
2022/11/20 03:15:12;;;;;;;36.88;17.42;;;;;;;;;;10481972;28;20286;-78
2022/11/20 03:20:12;;;;;;;29.52;15.48;;;;;;;;;;10484039;28;20066;-79
2022/11/20 03:25:13;;;;;;;31.93;15.53;;;;;;;;;;10486322;28;20483;-78
2022/11/20 03:30:13;;;;;;;30.42;14.23;;;;;;;;;;10458765;28;20364;-78
2022/11/20 03:35:14;;;;;;;37.90;16.27;;;;;;;;;;10479057;28;20404;-76
2022/11/20 03:40:14;;;;;;;35.22;16.95;;;;;;;;;;10471098;28;20032;-77
2022/11/20 03:45:16;;;;;;;34.77;15.27;;;;;;;;;;10487478;28;20033;-79
2022/11/20 03:50:16;;;;;;;39.00;16.00;;;;;;;;;;10477339;28;20364;-78
2022/11/20 03:55:17;;;;;;;40.92;18.17;;;;;;;;;;10479194;28;20828;-78
2022/11/20 04:00:17;;;;;;;38.35;17.17;;;;;;;;;;10484318;28;20363;-78
2022/11/20 04:05:40;;;;;;;33.50;16.20;;;;;;;;;;10458150;28;20033;-77
2022/11/20 04:10:40;;;;;;;36.42;16.02;;;;;;;;;;10477296;28;20063;-77
2022/11/20 04:15:41;;;;;;;40.17;16.95;;;;;;;;;;10475778;28;20035;-78
2022/11/20 04:20:41;;;;;;;39.28;15.52;;;;;;;;;;10484189;28;20024;-78
2022/11/20 04:25:41;;;;;;;41.58;17.40;;;;;;;;;;10484631;28;20025;-78
2022/11/20 04:30:42;;;;;;;37.60;16.33;;;;;;;;;;10479446;28;20155;-79
2022/11/20 04:35:43;;;;;;;39.28;17.08;;;;;;;;;;10483843;28;20040;-78
2022/11/20 04:40:44;;;;;;;40.58;17.58;;;;;;;;;;10490959;28;20569;-76
2022/11/20 04:45:50;;;;;;;38.43;16.37;;;;;;;;;;10475553;28;20035;-77
2022/11/20 04:50:50;;;;;;;40.60;17.27;;;;;;;;;;10479150;28;20303;-76
2022/11/20 04:55:51;;;;;;;37.03;16.33;;;;;;;;;;10491320;28;20111;-77
2022/11/20 05:00:51;;;;;;;39.47;16.95;;;;;;;;;;10494714;28;20260;-77
2022/11/20 05:05:51;;;;;;;36.88;14.85;;;;;;;;;;10489570;28;20365;-75
2022/11/20 05:10:52;;;;;;;36.00;15.20;;;;;;;;;;10490510;28;20044;-78
2022/11/20 05:15:53;;;;;;;38.28;14.90;;;;;;;;;;10488564;28;20374;-78
2022/11/20 05:20:57;;;;;;;34.77;15.23;;;;;;;;;;10464468;28;20465;-76
2022/11/20 05:25:57;;;;;;;43.53;16.45;;;;;;;;;;10490026;28;20303;-77
2022/11/20 05:31:05;;;;;;;34.83;15.38;;;;;;;;;;10484756;28;20067;-76
2022/11/20 05:36:06;;;;;;;38.50;17.13;;;;;;;;;;10497473;28;20508;-76
2022/11/20 05:41:08;;;;;;;40.10;17.13;;;;;;;;;;10478594;28;20032;-75
2022/11/20 05:46:09;;;;;;;40.65;16.05;;;;;;;;;;10454222;28;20058;-76
2022/11/20 05:51:11;;;;;;;33.50;14.02;;;;;;;;;;10448088;28;20076;-77
2022/11/20 05:56:16;;;;;;;38.63;16.95;;;;;;;;;;10481376;28;20048;-78
2022/11/20 06:01:16;;;;;;;39.47;16.52;;;;;;;;;;10475510;28;20465;-77
2022/11/20 06:06:17;;;;;;;40.47;15.67;;;;;;;;;;10477824;28;20029;-77
2022/11/20 06:11:18;;;;;;;47.40;17.58;;;;;;;;;;10468411;28;20306;-80
2022/11/20 06:16:19;;;;;;;38.95;15.52;;;;;;;;;;10482773;28;20029;-77
2022/11/20 06:21:20;;;;;;;37.15;15.30;;;;;;;;;;10456234;28;20041;-77
2022/11/20 06:26:22;;;;;;;41.10;16.92;;;;;;;;;;10477921;28;20024;-76
2022/11/20 06:31:24;;;;;;;42.15;16.25;;;;;;;;;;10472817;28;20126;-79
2022/11/20 06:36:24;;;;;;;35.20;15.10;;;;;;;;;;10475266;28;20171;-78
2022/11/20 06:41:25;;;;;;;34.83;15.45;;;;;;;;;;10475438;28;20538;-76
2022/11/20 06:46:25;;;;;;;34.63;14.50;;;;;;;;;;10468391;28;20032;-79
2022/11/20 06:51:25;;;;;;;39.33;13.97;;;;;;;;;;10465568;28;20061;-78
2022/11/20 06:56:26;;;;;;;33.20;14.85;;;;;;;;;;10463822;28;20477;-78
2022/11/20 07:01:26;;;;;;;35.50;14.73;;;;;;;;;;10475917;28;20028;-76
2022/11/20 07:06:27;;;;;;;39.77;16.30;;;;;;;;;;10461584;28;20147;-76
2022/11/20 07:11:28;;;;;;;33.65;14.70;;;;;;;;;;10473271;28;20793;-76
2022/11/20 07:16:28;;;;;;;31.83;13.30;;;;;;;;;;10476790;28;20039;-76
2022/11/20 07:21:28;;;;;;;32.95;14.10;;;;;;;;;;10472105;28;20275;-77
2022/11/20 07:26:29;;;;;;;33.15;13.48;;;;;;;;;;10476261;28;20040;-78
2022/11/20 07:31:29;;;;;;;36.53;16.13;;;;;;;;;;10463017;28;20036;-77
2022/11/20 07:36:30;;;;;;;39.63;15.37;;;;;;;;;;10490236;28;20274;-78
2022/11/20 07:41:31;;;;;;;37.10;15.52;;;;;;;;;;10491439;28;20289;-78
2022/11/20 07:46:31;;;;;;;40.50;15.40;;;;;;;;;;10479328;28;20033;-76
2022/11/20 07:51:32;;;;;;;38.50;15.48;;;;;;;;;;10478958;28;20049;-80
2022/11/20 07:56:32;;;;;;;37.03;15.48;;;;;;;;;;10481958;28;20033;-83
2022/11/20 08:01:35;;;;;;;41.22;16.00;;;;;;;;;;10839923;22;20072;-78
2022/11/20 08:06:36;;;;;;;41.88;16.75;;;;;;;;;;10414660;28;20041;-78
2022/11/20 08:16:55;;;;;;;45.03;17.05;;;;;;;;;;10417030;28;20382;-79
2022/11/20 08:21:56;;;;;;;46.60;16.92;;;;;;;;;;10429375;28;20041;-79
2022/11/20 08:26:59;;;;;;;55.15;20.15;;;;;;;;;;10413595;28;20124;-79
2022/11/20 08:32:00;;;;;;;52.53;20.42;;;;;;;;;;10411937;28;20091;-78
2022/11/20 08:37:02;;;;;;;55.55;18.85;;;;;;;;;;10415043;28;20045;-79
2022/11/20 08:42:06;;;;;;;46.22;20.02;;;;;;;;;;10413009;28;20037;-78
2022/11/20 08:47:06;;;;;;;41.17;17.67;;;;;;;;;;10416191;28;20041;-78
2022/11/20 08:52:07;;;;;;;42.22;17.65;;;;;;;;;;10419436;28;20049;-77
2022/11/20 08:57:07;;;;;;;47.20;19.55;;;;;;;;;;10418345;28;20436;-76
2022/11/20 09:02:07;;;;;;;48.65;19.63;;;;;;;;;;10419603;28;20096;-76
2022/11/20 09:07:08;;;;;;;52.53;19.50;;;;;;;;;;10420119;28;20033;-76
2022/11/20 09:12:08;;;;;;;50.17;21.40;;;;;;;;;;10412089;28;20323;-76
2022/11/20 09:17:09;;;;;;;55.17;21.00;;;;;;;;;;10409962;28;20367;-76
2022/11/20 09:22:10;;;;;;;37.47;18.27;;;;;;;;;;10387376;28;20137;-75
2022/11/20 09:27:10;;;;;;;56.00;20.20;;;;;;;;;;10414796;28;20045;-75
2022/11/20 09:32:13;;;;;;;41.90;18.52;;;;;;;;;;10414990;28;20312;-76
2022/11/20 09:37:13;;;;;;;40.70;17.40;;;;;;;;;;10410907;28;20068;-76
2022/11/20 09:42:20;;;;;;;41.70;17.50;;;;;;;;;;10411811;28;20449;-76
2022/11/20 09:47:27;;;;;;;46.92;15.38;;;;;;;;;;10411583;28;20075;-75
2022/11/20 09:52:30;;;;;;;42.53;16.23;;;;;;;;;;10407384;28;20637;-75
2022/11/20 09:57:39;;;;;;;42.63;16.58;;;;;;;;;;10411094;28;20041;-75
2022/11/20 10:02:58;;;;;;;37.70;16.38;;;;;;;;;;10413675;28;20045;-75
2022/11/20 10:08:04;;;;;;;40.83;17.20;;;;;;;;;;10414534;28;20382;-76
2022/11/20 10:13:19;;;;;;;39.22;15.77;;;;;;;;;;10402450;28;20413;-76
2022/11/20 10:18:31;;;;;;;50.17;19.60;;;;;;;;;;10390271;28;20166;-79
2022/11/20 10:23:48;;;;;;;41.55;17.15;;;;;;;;;;10421303;28;20128;-78
2022/11/20 10:29:07;;;;;;;40.10;17.17;;;;;;;;;;10431288;28;20022;-78
2022/11/20 10:34:28;;;;;;;42.15;17.15;;;;;;;;;;10439307;28;20073;-76
2022/11/20 10:39:38;;;;;;;34.40;14.93;;;;;;;;;;10392153;28;20096;-77
2022/11/20 10:50:02;;;;;;;41.75;17.27;;;;;;;;;;10414996;28;20078;-74
2022/11/20 10:55:02;;;;;;;37.63;16.17;;;;;;;;;;10428051;28;20028;-77
2022/11/20 11:00:06;;;;;;;42.08;18.23;;;;;;;;;;10441840;28;20039;-75
2022/11/20 11:05:14;;;;;;;43.92;19.42;;;;;;;;;;10407788;28;20042;-76
2022/11/20 11:10:32;;;;;;;41.13;17.75;;;;;;;;;;10431349;28;20382;-76
2022/11/20 11:15:38;;;;;;;46.22;20.60;;;;;;;;;;10413889;28;20033;-79
2022/11/20 11:20:38;;;;;;;53.35;20.30;;;;;;;;;;10447146;28;20050;-79
2022/11/20 11:25:39;;;;;;;67.38;22.83;;;;;;;;;;10431462;28;20375;-77
2022/11/20 11:30:41;;;;;;;53.03;20.77;;;;;;;;;;10415540;28;20881;-78
2022/11/20 11:35:46;;;;;;;55.25;20.95;;;;;;;;;;10418573;28;20045;-76
2022/11/20 11:40:47;;;;;;;57.22;23.88;;;;;;;;;;10391335;28;20073;-75
2022/11/20 11:45:52;;;;;;;41.72;19.88;;;;;;;;;;10398782;28;20038;-76
2022/11/20 11:50:53;;;;;;;49.88;24.40;;;;;;;;;;10411218;28;20058;-76
2022/11/20 11:56:11;;;;;;;41.08;20.60;;;;;;;;;;10408362;28;20394;-76
2022/11/20 12:01:20;;;;;;;28.65;15.95;;;;;;;;;;10396002;28;20037;-76
2022/11/20 12:06:20;;;;;;;27.55;15.85;;;;;;;;;;10395102;28;20477;-76
2022/11/20 12:11:30;;;;;;;21.95;12.60;;;;;;;;;;10408276;28;20125;-75
2022/11/20 12:16:32;;;;;;;23.70;13.00;;;;;;;;;;10388855;28;20033;-75
2022/11/20 12:21:59;;;;;;;24.58;13.65;;;;;;;;;;10395834;28;20037;-77
2022/11/20 12:27:23;;;;;;;26.80;15.00;;;;;;;;;;10385816;28;20137;-74
2022/11/20 12:32:33;;;;;;;24.92;13.30;;;;;;;;;;10407703;28;20045;-75
2022/11/20 12:37:52;;;;;;;27.30;13.77;;;;;;;;;;10414428;28;20556;-73
2022/11/20 12:48:24;;;;;;;18.00;10.50;;;;;;;;;;10424611;28;20091;-78
2022/11/20 12:53:33;;;;;;;16.15;8.52;;;;;;;;;;10385582;28;20088;-74
2022/11/20 12:58:43;;;;;;;16.67;8.55;;;;;;;;;;10383987;28;20423;-77
2022/11/20 13:03:52;;;;;;;13.18;7.90;;;;;;;;;;10415451;28;20222;-76
2022/11/20 13:08:55;;;;;;;14.98;9.27;;;;;;;;;;10372999;28;20056;-81
2022/11/20 13:14:03;;;;;;;17.50;9.32;;;;;;;;;;10374582;28;20045;-77
2022/11/20 13:19:04;;;;;;;16.80;10.35;;;;;;;;;;10412907;28;20040;-77
2022/11/20 13:24:05;;;;;;;15.60;8.65;;;;;;;;;;10380659;28;20069;-76
2022/11/20 13:29:16;;;;;;;16.77;9.88;;;;;;;;;;10420429;28;20025;-78
2022/11/20 13:34:23;;;;;;;17.70;9.07;;;;;;;;;;10396717;28;20113;-75
2022/11/20 13:39:28;;;;;;;20.13;10.30;;;;;;;;;;10408054;28;20107;-78
2022/11/20 13:44:29;;;;;;;39.78;20.88;;;;;;;;;;10415573;28;20482;-75
2022/11/20 13:49:31;;;;;;;28.50;13.60;;;;;;;;;;10415359;28;20045;-75
2022/11/20 13:54:54;;;;;;;20.23;11.75;;;;;;;;;;10412508;28;20297;-76
2022/11/20 14:00:01;;;;;;;21.52;11.73;;;;;;;;;;10413324;28;20064;-77
2022/11/20 14:05:01;;;;;;;20.67;11.27;;;;;;;;;;10408966;28;20116;-74
2022/11/20 14:10:02;;;;;;;20.95;10.80;;;;;;;;;;10406164;28;20131;-75
2022/11/20 14:15:02;;;;;;;19.98;10.57;;;;;;;;;;10388623;28;20482;-77
2022/11/20 14:20:11;;;;;;;25.65;11.50;;;;;;;;;;10411800;28;20037;-75
2022/11/20 14:25:14;;;;;;;22.27;12.63;;;;;;;;;;10410204;28;20408;-75
2022/11/20 14:30:15;;;;;;;23.05;12.40;;;;;;;;;;10415097;28;20042;-75
2022/11/20 14:35:26;;;;;;;25.13;12.80;;;;;;;;;;10386565;28;20140;-75
2022/11/20 14:40:36;;;;;;;23.27;13.18;;;;;;;;;;10375541;28;20076;-76
2022/11/20 14:45:38;;;;;;;27.02;13.57;;;;;;;;;;10396248;28;20128;-73
2022/11/20 14:50:39;;;;;;;25.10;13.55;;;;;;;;;;10386146;28;20046;-75
2022/11/20 14:55:40;;;;;;;28.38;14.43;;;;;;;;;;10392751;28;20038;-75
2022/11/20 15:00:40;;;;;;;26.42;13.85;;;;;;;;;;10383948;28;20034;-73
2022/11/20 15:05:45;;;;;;;30.58;15.32;;;;;;;;;;10394928;28;20025;-72
2022/11/20 15:10:50;;;;;;;27.88;14.75;;;;;;;;;;10383892;28;20053;-77
2022/11/20 15:15:54;;;;;;;28.63;13.50;;;;;;;;;;10379432;28;20045;-82
2022/11/20 15:20:56;;;;;;;29.45;13.00;;;;;;;;;;10381979;28;20087;-74
2022/11/20 15:25:57;;;;;;;27.55;14.85;;;;;;;;;;10368293;28;20539;-74
2022/11/20 15:30:57;;;;;;;42.50;18.17;;;;;;;;;;10373432;28;20046;-75
2022/11/20 15:35:58;;;;;;;28.92;15.15;;;;;;;;;;10382071;28;20079;-76
2022/11/20 15:40:58;;;;;;;27.52;14.82;;;;;;;;;;10407991;28;20037;-75
2022/11/20 15:46:00;;;;;;;40.53;18.17;;;;;;;;;;10426900;28;20026;-77
2022/11/20 15:51:10;;;;;;;41.28;18.27;;;;;;;;;;10420157;28;20791;-75
2022/11/20 15:56:14;;;;;;;29.77;15.95;;;;;;;;;;10393850;28;20667;-76
2022/11/20 16:01:15;;;;;;;45.53;20.13;;;;;;;;;;10423638;28;20037;-73
2022/11/20 16:06:17;;;;;;;40.70;19.07;;;;;;;;;;10415378;28;20072;-73
2022/11/20 16:11:17;;;;;;;40.67;19.25;;;;;;;;;;10423745;28;20878;-77
2022/11/20 16:16:20;;;;;;;36.38;18.67;;;;;;;;;;10417043;28;20025;-75
2022/11/20 16:21:26;;;;;;;38.10;19.25;;;;;;;;;;10407034;28;20747;-73
2022/11/20 16:26:27;;;;;;;38.95;19.10;;;;;;;;;;10416472;28;20106;-74
2022/11/20 16:31:28;;;;;;;34.03;17.98;;;;;;;;;;10430026;28;20045;-72
2022/11/20 16:36:29;;;;;;;39.25;20.52;;;;;;;;;;10426451;28;20042;-75
2022/11/20 16:41:31;;;;;;;44.33;22.17;;;;;;;;;;10416756;28;20033;-74
2022/11/20 16:46:32;;;;;;;40.33;20.40;;;;;;;;;;10425133;28;20068;-73
2022/11/20 16:51:36;;;;;;;44.83;22.10;;;;;;;;;;10421179;28;20045;-75
2022/11/20 16:56:36;;;;;;;47.30;23.25;;;;;;;;;;10437075;28;20084;-72
2022/11/20 17:01:39;;;;;;;48.03;23.52;;;;;;;;;;10429794;28;20063;-74
2022/11/20 17:06:40;;;;;;;41.80;22.27;;;;;;;;;;10442196;28;20041;-73
2022/11/20 17:11:41;;;;;;;51.03;24.30;;;;;;;;;;10421282;28;20033;-75
2022/11/20 17:16:41;;;;;;;41.28;23.08;;;;;;;;;;10415999;28;20099;-74
2022/11/20 17:21:42;;;;;;;32.42;20.10;;;;;;;;;;10418298;28;20092;-74
2022/11/20 17:26:43;;;;;;;40.83;21.38;;;;;;;;;;10420102;28;20053;-75
2022/11/20 17:31:44;;;;;;;34.00;17.98;;;;;;;;;;10411011;28;20084;-74
2022/11/20 17:36:45;;;;;;;31.30;15.52;;;;;;;;;;10417139;28;20501;-76
2022/11/20 17:42:25;;;;;;;36.90;17.92;;;;;;;;;;10401982;28;20037;-76
2022/11/20 17:47:06;;;;;;;29.52;15.88;;;;;;;;;;10394009;28;20050;-72
2022/11/20 17:52:06;;;;;;;28.95;14.38;;;;;;;;;;10422317;28;20053;-75
2022/11/20 18:02:27;;;;;;;34.95;16.70;;;;;;;;;;10412200;28;20831;-73
2022/11/20 18:07:27;;;;;;;49.88;19.77;;;;;;;;;;10411152;28;20041;-75
2022/11/20 18:12:27;;;;;;;29.50;15.15;;;;;;;;;;10418257;28;20045;-77
2022/11/20 18:17:28;;;;;;;32.37;15.63;;;;;;;;;;10412918;28;20095;-74
2022/11/20 18:22:29;;;;;;;33.15;17.45;;;;;;;;;;10402904;28;20383;-76
2022/11/20 18:27:29;;;;;;;34.88;17.88;;;;;;;;;;10400383;28;20040;-74
2022/11/20 18:32:30;;;;;;;34.05;18.60;;;;;;;;;;10415567;28;20048;-75
2022/11/20 18:37:30;;;;;;;32.85;18.33;;;;;;;;;;10413157;28;20044;-76
2022/11/20 18:47:50;;;;;;;45.20;21.38;;;;;;;;;;10413988;28;20033;-74
2022/11/20 18:52:50;;;;;;;37.37;19.00;;;;;;;;;;10412584;28;20053;-75
2022/11/20 18:57:51;;;;;;;44.97;20.98;;;;;;;;;;10416076;28;20294;-75
2022/11/20 19:02:53;;;;;;;45.22;21.70;;;;;;;;;;10412598;28;20049;-75
2022/11/20 19:07:53;;;;;;;51.17;20.23;;;;;;;;;;10405651;28;20052;-75
2022/11/20 19:12:54;;;;;;;43.00;19.30;;;;;;;;;;10412987;28;20050;-75
2022/11/20 19:17:56;;;;;;;32.95;18.33;;;;;;;;;;10410512;28;20382;-74
2022/11/20 19:22:56;;;;;;;40.10;20.38;;;;;;;;;;10415352;28;20049;-76
2022/11/20 19:27:58;;;;;;;33.95;19.77;;;;;;;;;;10403975;28;20041;-74
2022/11/20 19:32:58;;;;;;;34.17;18.80;;;;;;;;;;10424723;28;20065;-76
2022/11/20 19:38:00;;;;;;;38.08;20.67;;;;;;;;;;10382806;28;20405;-76
2022/11/20 19:43:00;;;;;;;34.72;18.40;;;;;;;;;;10423577;28;20442;-76
2022/11/20 19:48:01;;;;;;;34.70;18.48;;;;;;;;;;10420011;28;20045;-75
2022/11/20 19:53:02;;;;;;;29.80;17.07;;;;;;;;;;10412535;28;20072;-76
2022/11/20 19:58:02;;;;;;;29.65;18.35;;;;;;;;;;10417230;28;20304;-77
2022/11/20 20:03:03;;;;;;;27.58;16.88;;;;;;;;;;10422513;28;20080;-77
2022/11/20 20:08:03;;;;;;;27.53;17.00;;;;;;;;;;10386575;28;20420;-78
2022/11/20 20:13:04;;;;;;;31.98;18.23;;;;;;;;;;10413715;28;20316;-77
2022/11/20 20:18:04;;;;;;;36.97;21.33;;;;;;;;;;10416029;28;20120;-77
2022/11/20 20:23:06;;;;;;;34.60;22.00;;;;;;;;;;10401467;28;20381;-78
2022/11/20 20:28:06;;;;;;;38.08;23.67;;;;;;;;;;10421278;28;20442;-77
2022/11/20 20:33:06;;;;;;;30.60;19.47;;;;;;;;;;10420501;28;20056;-77
2022/11/20 20:38:07;;;;;;;27.85;17.38;;;;;;;;;;10423459;28;20430;-74
2022/11/20 20:43:07;;;;;;;36.67;19.27;;;;;;;;;;10421573;28;20029;-77
2022/11/20 20:48:08;;;;;;;30.10;16.20;;;;;;;;;;10419798;28;20037;-77
2022/11/20 20:53:08;;;;;;;20.70;13.70;;;;;;;;;;10390163;28;20321;-75
2022/11/20 20:58:09;;;;;;;19.65;11.85;;;;;;;;;;10417797;28;20046;-77
2022/11/20 21:03:09;;;;;;;20.73;11.95;;;;;;;;;;10418409;28;20072;-78
2022/11/20 21:08:23;;;;;;;18.38;11.23;;;;;;;;;;10405614;28;20049;-78
2022/11/20 21:13:23;;;;;;;;;;;;;;;;;;10405025;28;20073;-76
2022/11/20 21:18:24;;;;;;;14.05;8.95;;;;;;;;;;10406789;28;20028;-77
2022/11/20 21:23:24;;;;;;;13.82;8.73;;;;;;;;;;10391730;28;20045;-76
2022/11/20 21:28:25;;;;;;;15.83;8.70;;;;;;;;;;10401495;28;20045;-76
2022/11/20 21:33:25;;;;;;;12.00;7.90;;;;;;;;;;10411942;28;20318;-78
2022/11/20 21:38:25;;;;;;;10.60;6.40;;;;;;;;;;10413252;28;20311;-74
2022/11/20 21:43:26;;;;;;;11.03;6.20;;;;;;;;;;10410342;28;20331;-77
2022/11/20 21:48:29;;;;;;;10.25;5.60;;;;;;;;;;10413178;28;21065;-78
2022/11/20 21:53:29;;;;;;;8.50;5.30;;;;;;;;;;10410808;28;20413;-75
2022/11/20 21:58:30;;;;;;;9.00;5.95;;;;;;;;;;10412377;28;20048;-75
2022/11/20 22:03:30;;;;;;;8.20;5.10;;;;;;;;;;10388640;28;20505;-75
2022/11/20 22:08:32;;;;;;;7.90;5.13;;;;;;;;;;10382131;28;20044;-77
2022/11/20 22:18:53;;;;;;;11.88;4.65;;;;;;;;;;10403964;28;20454;-75
2022/11/20 22:23:53;;;;;;;8.15;4.32;;;;;;;;;;10420235;28;20029;-76
2022/11/20 22:28:56;;;;;;;4.90;4.10;;;;;;;;;;10412193;28;20124;-74
2022/11/20 22:33:57;;;;;;;4.93;3.45;;;;;;;;;;10403232;28;20052;-77
2022/11/20 22:38:57;;;;;;;5.35;3.50;;;;;;;;;;10411667;28;20120;-75
2022/11/20 22:43:59;;;;;;;4.85;3.20;;;;;;;;;;10425574;28;20129;-76
2022/11/20 22:49:00;;;;;;;4.03;3.15;;;;;;;;;;10418054;28;20064;-77
2022/11/20 22:54:02;;;;;;;4.50;2.83;;;;;;;;;;10430509;28;20057;-74
2022/11/20 22:59:02;;;;;;;3.75;3.05;;;;;;;;;;10429553;28;20037;-75
2022/11/20 23:04:04;;;;;;;3.95;2.78;;;;;;;;;;10426465;28;20037;-76
2022/11/20 23:09:06;;;;;;;4.22;2.78;;;;;;;;;;10414694;28;20472;-76
2022/11/20 23:14:10;;;;;;;3.30;2.33;;;;;;;;;;10422641;28;20482;-75
2022/11/20 23:19:12;;;;;;;2.72;2.35;;;;;;;;;;10422204;28;20091;-76
2022/11/20 23:24:12;;;;;;;3.53;2.72;;;;;;;;;;10401944;28;20041;-77
2022/11/20 23:29:12;;;;;;;3.25;2.95;;;;;;;;;;10412563;28;20473;-77
2022/11/20 23:34:13;;;;;;;2.50;2.30;;;;;;;;;;10415038;28;20044;-77
2022/11/20 23:39:15;;;;;;;3.80;2.83;;;;;;;;;;10416703;28;20280;-77
2022/11/20 23:44:15;;;;;;;2.75;2.42;;;;;;;;;;10417841;28;20033;-76
2022/11/20 23:49:16;;;;;;;4.13;2.60;;;;;;;;;;10417465;28;20404;-74
2022/11/20 23:54:16;;;;;;;3.23;2.37;;;;;;;;;;10411749;28;20834;-74
2022/11/20 23:59:16;;;;;;;3.87;2.57;;;;;;;;;;10414730;28;20790;-77
